Data for 08/11/2007

Time Sea-Level Adjusted Pressure Absolute Pressure Temperature Relative Humidity Dew Point   
(mb) (inHg) (mb) (inHg) (C) (F) (%) (C) (F)
00:05 1020 30.12 849 25.07 14.6 58.3 62 7.5 45.5
00:10 1020 30.12 849 25.07 14.2 57.5 65 7.9 46.2
00:15 1020 30.12 849 25.07 14.3 57.7 61 7 44.6
00:20 1020 30.12 849 25.07 14 57.2 62 7 44.5
00:25 1020 30.12 849 25.07 13.9 57.1 61 6.6 43.9
00:30 1020 30.12 849 25.07 14 57.2 63 7.1 44.7
00:35 1020 30.12 849 25.07 13.7 56.6 64 7 44.7
00:40 1020 30.12 849 25.07 13.6 56.5 63 6.8 44.3
00:45 1020 30.12 850 25.1 13.7 56.6 64 7 44.6
00:50 1020 30.12 850 25.1 13.5 56.3 65 7.1 44.8
00:55 1020 30.12 850 25.1 13.5 56.2 65 7 44.6
01:00 1020 30.12 850 25.1 13.2 55.8 66 7.1 44.7
01:05 1020 30.12 850 25.1 13.2 55.8 63 6.4 43.6
01:10 1020 30.12 850 25.1 13.6 56.4 62 6.5 43.8
01:15 1020 30.12 850 25.1 13.6 56.4 63 6.7 44
01:20 1020 30.12 850 25.1 13.5 56.2 64 6.8 44.2
01:25 1020 30.12 850 25.1 13.1 55.6 65 6.7 44.1
01:30 1021 30.15 850 25.1 12.9 55.2 64 6.4 43.5
01:35 1021 30.15 850 25.1 12.7 54.9 65 6.4 43.6
01:40 1021 30.15 850 25.1 12.5 54.6 66 6.5 43.7
01:45 1021 30.15 850 25.1 12.3 54.1 66 6.2 43.2
01:50 1021 30.15 850 25.1 12.5 54.6 63 5.8 42.5
01:55 1021 30.15 850 25.1 12.6 54.7 64 6 42.7
02:00 1021 30.15 850 25.1 12.4 54.3 63 5.5 41.9
02:05 1021 30.15 850 25.1 12.3 54.1 61 5 40.9
02:10 1021 30.15 850 25.1 12.4 54.3 61 5.1 41.1
02:15 1021 30.15 850 25.1 12.5 54.6 57 4.2 39.5
02:20 1021 30.15 850 25.1 12.8 55 59 5.1 41.2
02:25 1021 30.15 850 25.1 12.6 54.7 60 5.1 41.1
02:30 1021 30.15 850 25.1 12.2 54 65 6 42.7
02:35 1021 30.15 850 25.1 11.4 52.5 69 6 42.8
02:40 1021 30.15 850 25.1 11.2 52.2 65 4.9 40.9
02:45 1021 30.15 850 25.1 11.7 53.1 64 5.2 41.3
02:50 1021 30.15 850 25.1 11.9 53.4 63 5.1 41.2
02:55 1021 30.15 850 25.1 12 53.5 63 5.2 41.4
03:00 1021 30.15 850 25.1 11.8 53.2 64 5.4 41.7
03:05 1021 30.15 850 25.1 11.7 53 63 5 41
03:10 1021 30.15 850 25.1 11.7 53 64 5.2 41.4
03:15 1021 30.15 850 25.1 11.5 52.7 64 4.9 40.8
03:20 1021 30.15 850 25.1 11.4 52.6 62 4.4 39.9
03:25 1021 30.15 850 25.1 11.9 53.4 60 4.4 40
03:30 1021 30.15 850 25.1 12 53.6 62 4.9 40.9
03:35 1021 30.15 850 25.1 12.1 53.8 62 5.2 41.3
03:40 1021 30.15 850 25.1 11.5 52.7 64 5 41.1
03:45 1021 30.15 850 25.1 11.1 52 65 4.7 40.5
03:50 1021 30.15 850 25.1 11 51.9 64 4.5 40.1
03:55 1021 30.15 850 25.1 11.1 51.9 60 3.5 38.4
04:00 1021 30.15 850 25.1 11.2 52.1 57 3.2 37.7
04:05 1021 30.15 850 25.1 11.2 52.1 58 3.3 37.9
04:10 1021 30.15 850 25.1 10.9 51.6 60 3.5 38.3
04:15 1021 30.15 850 25.1 11 51.7 62 4 39.2
04:20 1021 30.15 850 25.1 10.6 51.1 64 4 39.3
04:25 1021 30.15 851 25.13 10.4 50.6 64 4 39.1
04:30 1021 30.15 851 25.13 10.4 50.6 60 2.9 37.3
04:35 1021 30.15 851 25.13 10.5 50.9 59 2.8 37
04:40 1021 30.15 851 25.13 10.6 51.2 62 3.7 38.6
04:45 1021 30.15 851 25.13 10.5 50.8 65 4.2 39.6
04:50 1021 30.15 851 25.13 10.8 51.4 64 4.4 39.8
04:55 1021 30.15 851 25.13 10.9 51.6 64 4.4 40
05:00 1022 30.18 851 25.13 10.8 51.5 64 4.3 39.8
05:05 1022 30.18 851 25.13 10.9 51.7 64 4.3 39.8
05:10 1022 30.18 851 25.13 11 51.7 64 4.4 39.9
05:15 1022 30.18 851 25.13 10.9 51.6 63 4.2 39.6
05:20 1022 30.18 851 25.13 10.7 51.3 64 4.3 39.8
05:25 1022 30.18 851 25.13 10.6 51.1 64 4.1 39.3
05:30 1022 30.18 851 25.13 10.6 51.1 63 3.9 39.1
05:35 1022 30.18 851 25.13 10.6 51.1 64 4 39.3
05:40 1022 30.18 851 25.13 10.4 50.8 64 4.1 39.3
05:45 1022 30.18 851 25.13 10.3 50.6 65 4 39.2
05:50 1022 30.18 851 25.13 10.2 50.4 65 3.9 39.1
05:55 1022 30.18 851 25.13 10.3 50.5 65 4 39.1
06:00 1022 30.18 851 25.13 10.6 51 65 4.3 39.7
06:05 1022 30.18 851 25.13 10.7 51.2 63 3.9 39
06:10 1022 30.18 851 25.13 10.4 50.7 61 3.2 37.8
06:15 1022 30.18 851 25.13 10.2 50.4 62 3.2 37.8
06:20 1022 30.18 851 25.13 9.9 49.8 62 3 37.3
06:25 1022 30.18 851 25.13 9.8 49.6 61 2.7 36.9
06:30 1022 30.18 851 25.13 9.7 49.5 59 2.1 35.9
06:35 1022 30.18 851 25.13 10 49.9 59 2.4 36.4
06:40 1022 30.18 851 25.13 10.2 50.3 58 2.2 36
06:45 1022 30.18 851 25.13 10 50 59 2.4 36.3
06:50 1022 30.18 851 25.13 9.6 49.2 62 2.6 36.6
06:55 1022 30.18 851 25.13 9.2 48.5 66 3.2 37.7
07:00 1022 30.18 851 25.13 9.4 48.9 65 3.2 37.7
07:05 1022 30.18 851 25.13 9.9 49.8 63 3.3 37.9
07:10 1022 30.18 851 25.13 10 49.9 62 2.9 37.3
07:15 1022 30.18 851 25.13 10 49.9 62 3.2 37.7
07:20 1022 30.18 851 25.13 10.6 51 61 3.5 38.3
07:25 1022 30.18 851 25.13 11.4 52.4 60 3.8 38.9
07:30 1022 30.18 851 25.13 11.8 53.2 59 4.1 39.3
07:35 1022 30.18 851 25.13 12 53.6 58 3.9 39.1
07:40 1022 30.18 851 25.13 12.2 54 56 3.8 38.9
07:45 1022 30.18 851 25.13 12.4 54.3 56 3.8 38.8
07:50 1022 30.18 851 25.13 12.6 54.6 55 3.8 38.8
07:55 1022 30.18 851 25.13 12.7 54.9 54 3.7 38.6
08:00 1022 30.18 851 25.13 12.9 55.2 53 3.5 38.3
08:05 1022 30.18 851 25.13 13 55.4 53 3.7 38.6
08:10 1022 30.18 851 25.13 13.2 55.7 51 3.4 38.2
08:15 1022 30.18 852 25.16 13.4 56 50 3.2 37.8
08:20 1022 30.18 852 25.16 13.5 56.3 51 3.5 38.3
08:25 1022 30.18 852 25.16 13.8 56.8 50 3.5 38.3
08:30 1022 30.18 852 25.16 13.9 57 49 3.4 38.1
08:35 1022 30.18 852 25.16 14 57.2 49 3.5 38.3
08:40 1022 30.18 852 25.16 14 57.1 49 3.6 38.4
08:45 1022 30.18 852 25.16 14.1 57.4 49 3.7 38.6
08:50 1022 30.18 852 25.16 14.2 57.5 49 3.7 38.6
08:55 1022 30.18 852 25.16 14.2 57.6 49 3.8 38.9
09:00 1022 30.18 852 25.16 14.3 57.7 49 3.8 38.9
09:05 1022 30.18 852 25.16 14.3 57.8 49 3.9 39
09:10 1022 30.18 852 25.16 14.3 57.8 50 4 39.2
09:15 1022 30.18 852 25.16 14.5 58.1 49 4 39.2
09:20 1022 30.18 852 25.16 14.8 58.6 48 4 39.1
09:25 1022 30.18 852 25.16 14.8 58.6 48 4.1 39.3
09:30 1022 30.18 852 25.16 14.9 58.7 49 4.3 39.7
09:35 1022 30.18 852 25.16 15.1 59.2 48 4.2 39.6
09:40 1022 30.18 852 25.16 15.2 59.4 48 4.2 39.6
09:45 1022 30.18 852 25.16 15.2 59.3 47 4.2 39.5
09:50 1022 30.18 852 25.16 15.4 59.8 48 4.6 40.2
09:55 1022 30.18 852 25.16 15.6 60 48 4.7 40.4
10:00 1022 30.18 852 25.16 15.7 60.2 47 4.5 40.1
10:05 1022 30.18 851 25.13 16.2 61.2 46 4.5 40.1
10:10 1022 30.18 851 25.13 16.5 61.6 45 4.6 40.2
10:15 1022 30.18 851 25.13 16.5 61.7 46 4.9 40.7
10:20 1022 30.18 851 25.13 16.6 61.8 46 5 41.1
10:25 1022 30.18 851 25.13 17 62.5 44 4.9 40.8
10:30 1022 30.18 851 25.13 17.3 63.2 43 4.9 40.9
10:35 1022 30.18 851 25.13 17.5 63.5 45 5.4 41.8
10:40 1022 30.18 851 25.13 17.4 63.4 43 5 40.9
10:45 1022 30.18 851 25.13 17.6 63.7 43 4.9 40.9
10:50 1022 30.18 851 25.13 17.7 63.9 43 5.2 41.3
10:55 1022 30.18 851 25.13 18.1 64.6 42 5 41
11:00 1022 30.18 851 25.13 18.3 64.9 42 5.2 41.4
11:05 1022 30.18 851 25.13 18.5 65.2 40 4.9 40.8
11:10 1022 30.18 851 25.13 18.7 65.7 41 5.3 41.6
11:15 1022 30.18 851 25.13 18.8 65.9 40 5 40.9
11:20 1022 30.18 851 25.13 19 66.3 38 4.5 40
11:25 1022 30.18 851 25.13 19.4 66.8 37 4.5 40.1
11:30 1022 30.18 851 25.13 19.3 66.7 37 4.4 39.9
11:35 1022 30.18 851 25.13 19.3 66.7 37 4.4 39.9
11:40 1022 30.18 851 25.13 19.4 66.9 35 3.8 38.8
11:45 1022 30.18 851 25.13 19.7 67.4 35 4.1 39.4
11:50 1022 30.18 851 25.13 19.9 67.9 35 4 39.2
11:55 1022 30.18 851 25.13 20.1 68.2 36 4.9 40.8
12:00 1022 30.18 851 25.13 20.1 68.1 35 4.2 39.6
12:05 1022 30.18 851 25.13 20.3 68.5 35 4.5 40.1
12:10 1022 30.18 851 25.13 20.8 69.4 34 4.6 40.2
12:15 1021 30.15 851 25.13 20.8 69.5 34 4.8 40.6
12:20 1021 30.15 851 25.13 20.6 69.1 35 4.8 40.7
12:25 1021 30.15 851 25.13 20.6 69 35 4.7 40.5
12:30 1021 30.15 850 25.1 20.9 69.7 35 5 40.9
12:35 1021 30.15 850 25.1 21.1 69.9 35 5.1 41.2
12:40 1021 30.15 850 25.1 21.5 70.6 34 5 41
12:45 1021 30.15 850 25.1 21.7 71.1 33 4.8 40.6
12:50 1021 30.15 850 25.1 21.7 71.1 34 5.5 41.9
12:55 1021 30.15 850 25.1 21.8 71.3 32 4.5 40.2
13:00 1021 30.15 850 25.1 22.2 72 32 4.8 40.7
13:05 1021 30.15 850 25.1 22.4 72.3 32 5 41
13:10 1021 30.15 850 25.1 22.7 72.9 31 4.9 40.9
13:15 1021 30.15 850 25.1 22.9 73.2 30 4.7 40.5
13:20 1021 30.15 850 25.1 22.9 73.1 30 4.6 40.4
13:25 1021 30.15 850 25.1 23 73.4 31 5 41
13:30 1021 30.15 850 25.1 23.4 74.1 30 4.9 40.9
13:35 1021 30.15 850 25.1 23 73.4 32 5.8 42.4
13:40 1021 30.15 850 25.1 22.8 73 32 5.3 41.5
13:45 1021 30.15 850 25.1 23.4 74.1 31 5.7 42.3
13:50 1021 30.15 850 25.1 23.6 74.5 31 5.9 42.6
13:55 1021 30.15 850 25.1 23.5 74.2 31 5.6 42.1
14:00 1020 30.12 850 25.1 23.2 73.8 30 5.1 41.2
14:05 1020 30.12 850 25.1 23.4 74.2 29 4.6 40.3
14:10 1020 30.12 850 25.1 23.5 74.3 30 4.9 40.9
14:15 1020 30.12 849 25.07 23.9 75 28 4.7 40.4
14:20 1020 30.12 849 25.07 24.2 75.5 28 4.9 40.8
14:25 1020 30.12 849 25.07 24.6 76.3 26 4.2 39.6
14:30 1020 30.12 849 25.07 24.8 76.6 26 4.4 40
14:35 1020 30.12 849 25.07 24.1 75.4 26 3.9 39
14:40 1020 30.12 849 25.07 24.6 76.2 25 3.3 37.9
14:45 1020 30.12 849 25.07 24.9 76.7 25 3.6 38.6
14:50 1020 30.12 849 25.07 26.5 79.7 22 3.3 38
14:55 1020 30.12 849 25.07 25.6 78.2 24 4.1 39.3
15:00 1020 30.12 849 25.07 25.4 77.7 24 3.4 38.1
15:05 1020 30.12 849 25.07 25.9 78.6 22 3 37.5
15:10 1020 30.12 849 25.07 25.6 78.2 24 3.6 38.4
15:15 1020 30.12 849 25.07 25.5 77.9 25 4.3 39.8
15:20 1020 30.12 849 25.07 25.2 77.4 24 3.5 38.3
15:25 1019 30.09 849 25.07 25.5 77.8 24 3.9 39
15:30 1019 30.09 849 25.07 25.6 78.1 23 3.1 37.6
15:35 1019 30.09 849 25.07 25.2 77.3 24 3.5 38.3
15:40 1019 30.09 848 25.04 25.4 77.8 23 3.2 37.7
15:45 1019 30.09 848 25.04 25.5 77.9 23 3 37.5
15:50 1019 30.09 848 25.04 25.2 77.3 24 3.2 37.7
15:55 1019 30.09 848 25.04 25.4 77.7 24 3.4 38.1
16:00 1019 30.09 848 25.04 25.1 77.2 23 3.1 37.5
16:05 1019 30.09 848 25.04 25.3 77.5 23 3.2 37.8
16:10 1019 30.09 848 25.04 25.3 77.5 24 3.3 38
16:15 1019 30.09 848 25.04 25.4 77.7 23 3.1 37.6
16:20 1019 30.09 848 25.04 25.5 77.9 24 3.4 38.2
16:25 1019 30.09 848 25.04 25.3 77.5 24 3.3 37.9
16:30 1019 30.09 848 25.04 24.9 76.9 24 3.1 37.6
16:35 1019 30.09 848 25.04 24.8 76.7 25 3.6 38.4
16:40 1019 30.09 848 25.04 24.6 76.3 25 3.3 37.9
16:45 1019 30.09 848 25.04 24.4 75.9 25 3.1 37.6
16:50 1019 30.09 848 25.04 24.4 75.9 25 3.2 37.7
16:55 1019 30.09 848 25.04 24.3 75.7 25 3.2 37.8
17:00 1019 30.09 848 25.04 24.3 75.7 25 3.1 37.6
17:05 1019 30.09 848 25.04 24.2 75.6 25 3.3 37.9
17:10 1019 30.09 848 25.04 24.1 75.3 25 3 37.4
17:15 1019 30.09 848 25.04 24.2 75.6 25 3.1 37.6
17:20 1018 30.06 848 25.04 24.1 75.5 25 3 37.3
17:25 1018 30.06 848 25.04 24.1 75.4 24 2.7 36.9
17:30 1018 30.06 848 25.04 23.8 74.8 25 2.8 37
17:35 1018 30.06 848 25.04 23.7 74.6 25 2.7 36.9
17:40 1018 30.06 848 25.04 23.8 74.8 25 2.9 37.2
17:45 1018 30.06 847 25.01 23.8 74.9 25 3 37.4
17:50 1018 30.06 847 25.01 23.9 74.9 25 3.1 37.6
17:55 1018 30.06 847 25.01 23.9 74.9 26 3.2 37.8
18:00 1018 30.06 847 25.01 23.7 74.6 26 3.2 37.7
18:05 1018 30.06 847 25.01 23.7 74.6 25 2.9 37.2
18:10 1018 30.06 847 25.01 23.7 74.6 25 2.9 37.1
18:15 1018 30.06 847 25.01 23.7 74.6 26 3 37.5
18:20 1018 30.06 847 25.01 23.9 74.9 26 3.2 37.8
18:25 1018 30.06 847 25.01 23.8 74.9 25 3.1 37.6
18:30 1018 30.06 847 25.01 23.7 74.7 25 2.8 37.1
18:35 1018 30.06 847 25.01 23.5 74.3 25 2.7 36.9
18:40 1018 30.06 847 25.01 23.4 74.1 25 2.7 36.8
18:45 1018 30.06 847 25.01 23.5 74.3 25 2.6 36.8
18:50 1018 30.06 847 25.01 23.5 74.4 25 2.8 37.1
18:55 1018 30.06 847 25.01 23.4 74.1 25 2.5 36.5
19:00 1018 30.06 847 25.01 23.2 73.8 25 2.4 36.3
19:05 1018 30.06 847 25.01 23.2 73.7 26 2.6 36.7
19:10 1018 30.06 847 25.01 23.1 73.6 26 2.9 37.1
19:15 1018 30.06 847 25.01 23 73.4 27 3 37.4
19:20 1018 30.06 847 25.01 22.8 73 27 2.8 37.1
19:25 1018 30.06 847 25.01 22.6 72.7 27 2.9 37.3
19:30 1018 30.06 847 25.01 22.5 72.5 27 2.8 37.1
19:35 1018 30.06 847 25.01 22.4 72.3 27 2.6 36.8
19:40 1018 30.06 847 25.01 22.3 72.1 28 2.8 37.1
19:45 1018 30.06 847 25.01 22 71.7 28 3 37.5
19:50 1018 30.06 847 25.01 21.9 71.4 29 3.1 37.5
19:55 1018 30.06 847 25.01 21.7 71 29 3.2 37.7
20:00 1018 30.06 847 25.01 21.5 70.7 29 3.1 37.6
20:05 1018 30.06 847 25.01 21.4 70.5 30 3.1 37.6
20:10 1018 30.06 847 25.01 21.2 70.2 30 3.2 37.7
20:15 1018 30.06 847 25.01 21.1 69.9 30 3.2 37.8
20:20 1018 30.06 847 25.01 21 69.7 31 3.3 37.9
20:25 1018 30.06 847 25.01 20.9 69.5 31 3.4 38.1
20:30 1018 30.06 847 25.01 20.8 69.4 31 3.4 38.1
20:35 1018 30.06 847 25.01 20.7 69.2 32 3.4 38.2
20:40 1018 30.06 847 25.01 20.6 69.1 32 3.4 38.2
20:45 1018 30.06 848 25.04 20.5 68.9 32 3.4 38.1
20:50 1018 30.06 847 25.01 20.4 68.7 32 3.4 38.2
20:55 1018 30.06 848 25.04 20.2 68.4 33 3.4 38.2
21:00 1018 30.06 848 25.04 20.1 68.1 33 3.5 38.2
21:05 1018 30.06 848 25.04 19.9 67.8 33 3.4 38.1
21:10 1018 30.06 847 25.01 19.9 67.7 33 3.3 38
21:15 1018 30.06 848 25.04 19.8 67.7 33 3.3 37.9
21:20 1018 30.06 847 25.01 19.8 67.6 33 3.4 38
21:25 1018 30.06 847 25.01 19.8 67.6 33 3.3 37.9
21:30 1018 30.06 848 25.04 19.7 67.5 33 3.3 37.9
21:35 1018 30.06 847 25.01 19.7 67.5 33 3.2 37.8
21:40 1018 30.06 847 25.01 19.7 67.4 33 3.3 38
21:45 1018 30.06 847 25.01 19.7 67.4 33 3.3 37.9
21:50 1018 30.06 847 25.01 19.7 67.5 33 3.2 37.8
21:55 1018 30.06 847 25.01 19.7 67.5 33 3.3 38
22:00 1018 30.06 847 25.01 19.7 67.4 33 3.2 37.7
22:05 1018 30.06 847 25.01 19.6 67.3 33 3.2 37.7
22:10 1018 30.06 847 25.01 19.5 67.2 34 3.2 37.8
22:15 1018 30.06 847 25.01 19.4 67 34 3.2 37.8
22:20 1018 30.06 847 25.01 19.3 66.8 34 3.2 37.7
22:25 1018 30.06 848 25.04 19.2 66.6 34 3.3 37.9
22:30 1018 30.06 848 25.04 19.2 66.5 34 3.2 37.8
22:35 1019 30.09 848 25.04 19.1 66.4 34 3.1 37.7
22:40 1018 30.06 848 25.04 19 66.3 34 3.1 37.6
22:45 1019 30.09 848 25.04 18.9 66.1 35 3.2 37.7
22:50 1019 30.09 848 25.04 18.8 65.8 35 3 37.4
22:55 1019 30.09 848 25.04 18.7 65.6 35 3 37.3
23:00 1018 30.06 848 25.04 18.5 65.4 35 3 37.4
23:05 1018 30.06 848 25.04 18.5 65.3 35 2.8 37.1
23:10 1019 30.09 848 25.04 18.5 65.3 36 3.1 37.6
23:15 1018 30.06 847 25.01 18.3 65 35 2.7 36.8
23:20 1018 30.06 847 25.01 18.4 65.1 35 2.8 37
23:25 1018 30.06 847 25.01 18.3 65 35 2.6 36.8
23:30 1018 30.06 847 25.01 18.2 64.7 35 2.6 36.7
23:35 1018 30.06 848 25.04 18.1 64.6 35 2.6 36.6
23:40 1018 30.06 847 25.01 18.1 64.5 35 2.6 36.7
23:45 1018 30.06 847 25.01 17.9 64.1 36 2.6 36.7
23:50 1018 30.06 847 25.01 17.7 63.9 36 2.7 36.9
23:55 1018 30.06 847 25.01 17.6 63.7 37 2.8 37
24:00 1018 30.06 847 25.01 17.5 63.6 37 2.8 37